sensor_id;sensor_type;location;lat;lon;timestamp;temperature;humidity
15707;DHT22;7953;54.302;10.128;2024-02-23T00:01:49;10.70;99.90
15707;DHT22;7953;54.302;10.128;2024-02-23T00:04:17;10.70;99.90
15707;DHT22;7953;54.302;10.128;2024-02-23T00:06:45;10.60;99.90
15707;DHT22;7953;54.302;10.128;2024-02-23T00:09:12;10.50;99.90
15707;DHT22;7953;54.302;10.128;2024-02-23T00:11:39;10.30;99.90
15707;DHT22;7953;54.302;10.128;2024-02-23T00:14:10;10.10;99.90
15707;DHT22;7953;54.302;10.128;2024-02-23T00:16:40;10.00;99.90
15707;DHT22;7953;54.302;10.128;2024-02-23T00:19:07;9.90;99.90
15707;DHT22;7953;54.302;10.128;2024-02-23T00:21:36;9.80;99.90
15707;DHT22;7953;54.302;10.128;2024-02-23T00:24:03;9.70;99.90
15707;DHT22;7953;54.302;10.128;2024-02-23T00:26:31;9.70;99.90
15707;DHT22;7953;54.302;10.128;2024-02-23T00:28:58;9.60;99.90
15707;DHT22;7953;54.302;10.128;2024-02-23T00:31:24;9.60;99.90
15707;DHT22;7953;54.302;10.128;2024-02-23T00:33:51;9.60;99.90
15707;DHT22;7953;54.302;10.128;2024-02-23T00:36:18;9.60;99.90
15707;DHT22;7953;54.302;10.128;2024-02-23T00:38:46;9.50;99.90
15707;DHT22;7953;54.302;10.128;2024-02-23T00:41:13;9.40;99.90
15707;DHT22;7953;54.302;10.128;2024-02-23T00:43:40;9.40;99.90
15707;DHT22;7953;54.302;10.128;2024-02-23T00:46:07;9.40;99.90
15707;DHT22;7953;54.302;10.128;2024-02-23T00:48:34;9.30;99.90
15707;DHT22;7953;54.302;10.128;2024-02-23T00:51:02;9.30;99.90
15707;DHT22;7953;54.302;10.128;2024-02-23T00:53:31;9.10;99.90
15707;DHT22;7953;54.302;10.128;2024-02-23T00:55:59;9.00;99.90
15707;DHT22;7953;54.302;10.128;2024-02-23T00:58:26;8.80;99.90
15707;DHT22;7953;54.302;10.128;2024-02-23T01:00:53;8.70;99.90
15707;DHT22;7953;54.302;10.128;2024-02-23T01:03:19;8.30;99.90
15707;DHT22;7953;54.302;10.128;2024-02-23T01:05:46;8.10;99.90
15707;DHT22;7953;54.302;10.128;2024-02-23T01:08:13;8.00;99.90
15707;DHT22;7953;54.302;10.128;2024-02-23T01:10:40;7.80;99.90
15707;DHT22;7953;54.302;10.128;2024-02-23T01:13:08;7.80;99.90
15707;DHT22;7953;54.302;10.128;2024-02-23T01:15:35;7.70;99.90
15707;DHT22;7953;54.302;10.128;2024-02-23T01:18:03;7.70;99.90
15707;DHT22;7953;54.302;10.128;2024-02-23T01:20:31;7.60;99.90
15707;DHT22;7953;54.302;10.128;2024-02-23T01:22:58;7.60;99.90
15707;DHT22;7953;54.302;10.128;2024-02-23T01:25:25;7.60;99.90
15707;DHT22;7953;54.302;10.128;2024-02-23T01:27:51;7.60;99.90
15707;DHT22;7953;54.302;10.128;2024-02-23T01:30:20;7.60;99.90
15707;DHT22;7953;54.302;10.128;2024-02-23T01:32:47;7.60;99.90
15707;DHT22;7953;54.302;10.128;2024-02-23T01:35:13;7.50;99.90
15707;DHT22;7953;54.302;10.128;2024-02-23T01:37:40;7.50;99.90
15707;DHT22;7953;54.302;10.128;2024-02-23T01:40:08;7.40;99.90
15707;DHT22;7953;54.302;10.128;2024-02-23T01:42:35;7.30;99.90
15707;DHT22;7953;54.302;10.128;2024-02-23T01:45:01;7.30;99.90
15707;DHT22;7953;54.302;10.128;2024-02-23T01:47:30;7.20;99.90
15707;DHT22;7953;54.302;10.128;2024-02-23T01:49:58;7.20;99.90
15707;DHT22;7953;54.302;10.128;2024-02-23T01:52:26;7.10;99.90
15707;DHT22;7953;54.302;10.128;2024-02-23T01:54:53;7.10;99.90
15707;DHT22;7953;54.302;10.128;2024-02-23T01:57:21;7.00;99.90
15707;DHT22;7953;54.302;10.128;2024-02-23T01:59:49;7.00;99.90
15707;DHT22;7953;54.302;10.128;2024-02-23T02:02:16;7.00;99.90
15707;DHT22;7953;54.302;10.128;2024-02-23T02:04:45;6.90;99.90
15707;DHT22;7953;54.302;10.128;2024-02-23T02:07:11;6.90;99.90
15707;DHT22;7953;54.302;10.128;2024-02-23T02:09:39;6.70;99.90
15707;DHT22;7953;54.302;10.128;2024-02-23T02:12:06;6.70;99.90
15707;DHT22;7953;54.302;10.128;2024-02-23T02:14:32;6.60;99.90
15707;DHT22;7953;54.302;10.128;2024-02-23T02:17:00;6.60;99.90
15707;DHT22;7953;54.302;10.128;2024-02-23T02:19:27;6.50;99.90
15707;DHT22;7953;54.302;10.128;2024-02-23T02:21:55;6.50;99.90
15707;DHT22;7953;54.302;10.128;2024-02-23T02:24:22;6.40;99.90
15707;DHT22;7953;54.302;10.128;2024-02-23T02:26:49;6.40;99.90
15707;DHT22;7953;54.302;10.128;2024-02-23T02:29:16;6.40;99.90
15707;DHT22;7953;54.302;10.128;2024-02-23T02:31:43;6.40;99.90
15707;DHT22;7953;54.302;10.128;2024-02-23T02:34:10;6.40;99.90
15707;DHT22;7953;54.302;10.128;2024-02-23T02:36:38;6.30;99.90
15707;DHT22;7953;54.302;10.128;2024-02-23T02:39:06;6.30;99.90
15707;DHT22;7953;54.302;10.128;2024-02-23T02:41:33;6.20;99.90
15707;DHT22;7953;54.302;10.128;2024-02-23T02:44:00;6.20;99.90
15707;DHT22;7953;54.302;10.128;2024-02-23T02:46:27;6.20;99.90
15707;DHT22;7953;54.302;10.128;2024-02-23T02:48:54;6.10;99.90
15707;DHT22;7953;54.302;10.128;2024-02-23T02:51:21;6.10;99.90
15707;DHT22;7953;54.302;10.128;2024-02-23T02:53:47;6.10;99.90
15707;DHT22;7953;54.302;10.128;2024-02-23T02:56:16;6.00;99.90
15707;DHT22;7953;54.302;10.128;2024-02-23T02:58:42;5.90;99.90
15707;DHT22;7953;54.302;10.128;2024-02-23T03:01:09;5.90;99.90
15707;DHT22;7953;54.302;10.128;2024-02-23T03:03:36;5.80;99.90
15707;DHT22;7953;54.302;10.128;2024-02-23T03:06:03;5.80;99.90
15707;DHT22;7953;54.302;10.128;2024-02-23T03:08:31;5.70;99.90
15707;DHT22;7953;54.302;10.128;2024-02-23T03:10:58;5.70;99.90
15707;DHT22;7953;54.302;10.128;2024-02-23T03:13:26;5.70;99.90
15707;DHT22;7953;54.302;10.128;2024-02-23T03:15:53;5.70;99.90
15707;DHT22;7953;54.302;10.128;2024-02-23T03:18:20;5.70;99.90
15707;DHT22;7953;54.302;10.128;2024-02-23T03:20:46;5.70;99.90
15707;DHT22;7953;54.302;10.128;2024-02-23T03:23:13;5.70;99.90
15707;DHT22;7953;54.302;10.128;2024-02-23T03:25:40;5.70;99.90
15707;DHT22;7953;54.302;10.128;2024-02-23T03:28:07;5.60;99.90
15707;DHT22;7953;54.302;10.128;2024-02-23T03:30:35;5.70;99.90
15707;DHT22;7953;54.302;10.128;2024-02-23T03:33:02;5.70;99.90
15707;DHT22;7953;54.302;10.128;2024-02-23T03:35:29;5.70;99.90
15707;DHT22;7953;54.302;10.128;2024-02-23T03:37:56;5.70;99.90
15707;DHT22;7953;54.302;10.128;2024-02-23T03:40:23;5.70;99.90
15707;DHT22;7953;54.302;10.128;2024-02-23T03:42:49;5.80;99.90
15707;DHT22;7953;54.302;10.128;2024-02-23T03:45:16;5.70;99.90
15707;DHT22;7953;54.302;10.128;2024-02-23T03:47:44;5.80;99.90
15707;DHT22;7953;54.302;10.128;2024-02-23T03:50:11;5.80;99.90
15707;DHT22;7953;54.302;10.128;2024-02-23T03:52:38;5.80;99.90
15707;DHT22;7953;54.302;10.128;2024-02-23T03:55:06;5.80;99.90
15707;DHT22;7953;54.302;10.128;2024-02-23T03:57:33;5.80;99.90
15707;DHT22;7953;54.302;10.128;2024-02-23T04:00:00;5.70;99.90
15707;DHT22;7953;54.302;10.128;2024-02-23T04:02:26;5.70;99.90
15707;DHT22;7953;54.302;10.128;2024-02-23T04:04:55;5.80;99.90
15707;DHT22;7953;54.302;10.128;2024-02-23T04:07:22;5.80;99.90
15707;DHT22;7953;54.302;10.128;2024-02-23T04:09:49;5.80;99.90
15707;DHT22;7953;54.302;10.128;2024-02-23T04:12:18;5.80;99.90
15707;DHT22;7953;54.302;10.128;2024-02-23T04:14:45;5.70;99.90
15707;DHT22;7953;54.302;10.128;2024-02-23T04:17:11;5.80;99.90
15707;DHT22;7953;54.302;10.128;2024-02-23T04:19:39;5.80;99.90
15707;DHT22;7953;54.302;10.128;2024-02-23T04:22:08;5.80;99.90
15707;DHT22;7953;54.302;10.128;2024-02-23T04:24:37;5.80;99.90
15707;DHT22;7953;54.302;10.128;2024-02-23T04:27:04;5.80;99.90
15707;DHT22;7953;54.302;10.128;2024-02-23T04:29:31;5.80;99.90
15707;DHT22;7953;54.302;10.128;2024-02-23T04:31:59;5.90;99.90
15707;DHT22;7953;54.302;10.128;2024-02-23T04:34:26;5.80;99.90
15707;DHT22;7953;54.302;10.128;2024-02-23T04:36:53;5.80;99.90
15707;DHT22;7953;54.302;10.128;2024-02-23T04:39:22;5.70;99.90
15707;DHT22;7953;54.302;10.128;2024-02-23T04:41:48;5.80;99.90
15707;DHT22;7953;54.302;10.128;2024-02-23T04:44:15;5.80;99.90
15707;DHT22;7953;54.302;10.128;2024-02-23T04:46:42;5.70;99.90
15707;DHT22;7953;54.302;10.128;2024-02-23T04:49:10;5.80;99.90
15707;DHT22;7953;54.302;10.128;2024-02-23T04:51:38;5.80;99.90
15707;DHT22;7953;54.302;10.128;2024-02-23T04:54:05;5.80;99.90
15707;DHT22;7953;54.302;10.128;2024-02-23T04:56:34;5.80;99.90
15707;DHT22;7953;54.302;10.128;2024-02-23T04:59:01;5.80;99.90
15707;DHT22;7953;54.302;10.128;2024-02-23T05:01:28;5.80;99.90
15707;DHT22;7953;54.302;10.128;2024-02-23T05:03:55;5.80;99.90
15707;DHT22;7953;54.302;10.128;2024-02-23T05:06:21;5.90;99.90
15707;DHT22;7953;54.302;10.128;2024-02-23T05:08:49;5.90;99.90
15707;DHT22;7953;54.302;10.128;2024-02-23T05:11:16;5.80;99.90
15707;DHT22;7953;54.302;10.128;2024-02-23T05:13:44;5.80;99.90
15707;DHT22;7953;54.302;10.128;2024-02-23T05:16:11;5.80;99.90
15707;DHT22;7953;54.302;10.128;2024-02-23T05:18:38;5.80;99.90
15707;DHT22;7953;54.302;10.128;2024-02-23T05:21:06;5.80;99.90
15707;DHT22;7953;54.302;10.128;2024-02-23T05:23:32;5.80;99.90
15707;DHT22;7953;54.302;10.128;2024-02-23T05:25:59;5.80;99.90
15707;DHT22;7953;54.302;10.128;2024-02-23T05:28:26;5.80;99.90
15707;DHT22;7953;54.302;10.128;2024-02-23T05:30:55;5.80;99.90
15707;DHT22;7953;54.302;10.128;2024-02-23T05:33:23;5.80;99.90
15707;DHT22;7953;54.302;10.128;2024-02-23T05:35:49;5.70;99.90
15707;DHT22;7953;54.302;10.128;2024-02-23T05:38:16;5.60;99.90
15707;DHT22;7953;54.302;10.128;2024-02-23T05:40:44;5.70;99.90
15707;DHT22;7953;54.302;10.128;2024-02-23T05:43:11;5.70;99.90
15707;DHT22;7953;54.302;10.128;2024-02-23T05:45:40;5.70;99.90
15707;DHT22;7953;54.302;10.128;2024-02-23T05:48:08;5.70;99.90
15707;DHT22;7953;54.302;10.128;2024-02-23T05:50:35;5.70;99.90
15707;DHT22;7953;54.302;10.128;2024-02-23T05:53:02;5.70;99.90
15707;DHT22;7953;54.302;10.128;2024-02-23T05:55:30;5.70;99.90
15707;DHT22;7953;54.302;10.128;2024-02-23T05:57:57;5.70;99.90
15707;DHT22;7953;54.302;10.128;2024-02-23T06:00:24;5.70;99.90
15707;DHT22;7953;54.302;10.128;2024-02-23T06:02:50;5.70;99.90
15707;DHT22;7953;54.302;10.128;2024-02-23T06:05:19;5.70;99.90
15707;DHT22;7953;54.302;10.128;2024-02-23T06:07:46;5.70;99.90
15707;DHT22;7953;54.302;10.128;2024-02-23T06:10:12;5.60;99.90
15707;DHT22;7953;54.302;10.128;2024-02-23T06:12:39;5.70;99.90
15707;DHT22;7953;54.302;10.128;2024-02-23T06:15:07;5.70;99.90
15707;DHT22;7953;54.302;10.128;2024-02-23T06:17:34;5.70;99.90
15707;DHT22;7953;54.302;10.128;2024-02-23T06:20:01;5.70;99.90
15707;DHT22;7953;54.302;10.128;2024-02-23T06:22:30;5.70;99.90
15707;DHT22;7953;54.302;10.128;2024-02-23T06:24:58;5.70;99.90
15707;DHT22;7953;54.302;10.128;2024-02-23T06:27:25;5.70;99.90
15707;DHT22;7953;54.302;10.128;2024-02-23T06:29:53;5.70;99.90
15707;DHT22;7953;54.302;10.128;2024-02-23T06:32:21;5.70;99.90
15707;DHT22;7953;54.302;10.128;2024-02-23T06:34:47;5.70;99.90
15707;DHT22;7953;54.302;10.128;2024-02-23T06:37:14;5.80;99.90
15707;DHT22;7953;54.302;10.128;2024-02-23T06:39:42;5.80;99.90
15707;DHT22;7953;54.302;10.128;2024-02-23T06:42:10;5.90;99.90
15707;DHT22;7953;54.302;10.128;2024-02-23T06:44:37;5.90;99.90
15707;DHT22;7953;54.302;10.128;2024-02-23T06:47:04;5.90;99.90
15707;DHT22;7953;54.302;10.128;2024-02-23T06:49:32;5.90;99.90
15707;DHT22;7953;54.302;10.128;2024-02-23T06:51:58;5.90;99.90
15707;DHT22;7953;54.302;10.128;2024-02-23T06:54:25;6.00;99.90
15707;DHT22;7953;54.302;10.128;2024-02-23T06:56:54;6.00;99.90
15707;DHT22;7953;54.302;10.128;2024-02-23T06:59:21;6.00;99.90
15707;DHT22;7953;54.302;10.128;2024-02-23T07:01:50;6.00;99.90
15707;DHT22;7953;54.302;10.128;2024-02-23T07:04:17;5.90;99.90
15707;DHT22;7953;54.302;10.128;2024-02-23T07:06:44;6.00;99.90
15707;DHT22;7953;54.302;10.128;2024-02-23T07:09:11;6.00;99.90
15707;DHT22;7953;54.302;10.128;2024-02-23T07:11:38;6.00;99.90
15707;DHT22;7953;54.302;10.128;2024-02-23T07:14:08;6.00;99.90
15707;DHT22;7953;54.302;10.128;2024-02-23T07:16:37;6.10;99.90
15707;DHT22;7953;54.302;10.128;2024-02-23T07:19:04;6.00;99.90
15707;DHT22;7953;54.302;10.128;2024-02-23T07:21:32;6.00;99.90
15707;DHT22;7953;54.302;10.128;2024-02-23T07:23:59;6.00;99.90
15707;DHT22;7953;54.302;10.128;2024-02-23T07:26:26;5.90;99.90
15707;DHT22;7953;54.302;10.128;2024-02-23T07:28:54;5.90;99.90
15707;DHT22;7953;54.302;10.128;2024-02-23T07:31:22;5.90;99.90
15707;DHT22;7953;54.302;10.128;2024-02-23T07:33:49;5.90;99.90
15707;DHT22;7953;54.302;10.128;2024-02-23T07:36:16;5.80;99.90
15707;DHT22;7953;54.302;10.128;2024-02-23T07:38:43;5.80;99.90
15707;DHT22;7953;54.302;10.128;2024-02-23T07:41:10;5.80;99.90
15707;DHT22;7953;54.302;10.128;2024-02-23T07:43:38;5.80;99.90
15707;DHT22;7953;54.302;10.128;2024-02-23T07:46:05;5.80;99.90
15707;DHT22;7953;54.302;10.128;2024-02-23T07:48:35;5.80;99.90
15707;DHT22;7953;54.302;10.128;2024-02-23T07:51:03;5.80;99.90
15707;DHT22;7953;54.302;10.128;2024-02-23T07:53:30;5.80;99.90
15707;DHT22;7953;54.302;10.128;2024-02-23T07:55:57;5.80;99.90
15707;DHT22;7953;54.302;10.128;2024-02-23T07:58:27;5.80;99.90
15707;DHT22;7953;54.302;10.128;2024-02-23T08:00:54;5.80;99.90
15707;DHT22;7953;54.302;10.128;2024-02-23T08:03:21;5.90;99.90
15707;DHT22;7953;54.302;10.128;2024-02-23T08:05:49;5.90;99.90
15707;DHT22;7953;54.302;10.128;2024-02-23T08:08:16;6.00;99.90
15707;DHT22;7953;54.302;10.128;2024-02-23T08:10:43;6.00;99.90
15707;DHT22;7953;54.302;10.128;2024-02-23T08:13:10;6.00;99.90
15707;DHT22;7953;54.302;10.128;2024-02-23T08:15:37;5.90;99.90
15707;DHT22;7953;54.302;10.128;2024-02-23T08:18:04;5.90;99.90
15707;DHT22;7953;54.302;10.128;2024-02-23T08:20:31;5.90;99.90
15707;DHT22;7953;54.302;10.128;2024-02-23T08:22:59;6.00;99.90
15707;DHT22;7953;54.302;10.128;2024-02-23T08:25:26;6.00;99.90
15707;DHT22;7953;54.302;10.128;2024-02-23T08:27:54;6.10;99.90
15707;DHT22;7953;54.302;10.128;2024-02-23T08:30:21;6.20;99.90
15707;DHT22;7953;54.302;10.128;2024-02-23T08:32:48;6.20;99.90
15707;DHT22;7953;54.302;10.128;2024-02-23T08:35:15;6.30;99.90
15707;DHT22;7953;54.302;10.128;2024-02-23T08:37:42;6.40;99.90
15707;DHT22;7953;54.302;10.128;2024-02-23T08:40:11;6.40;99.90
15707;DHT22;7953;54.302;10.128;2024-02-23T08:42:38;6.50;99.90
15707;DHT22;7953;54.302;10.128;2024-02-23T08:45:06;6.50;99.90
15707;DHT22;7953;54.302;10.128;2024-02-23T08:47:33;6.50;99.90
15707;DHT22;7953;54.302;10.128;2024-02-23T08:50:01;6.50;99.90
15707;DHT22;7953;54.302;10.128;2024-02-23T08:52:28;6.40;99.90
15707;DHT22;7953;54.302;10.128;2024-02-23T08:54:55;6.50;99.90
15707;DHT22;7953;54.302;10.128;2024-02-23T08:57:23;6.40;99.90
15707;DHT22;7953;54.302;10.128;2024-02-23T08:59:51;6.40;99.90
15707;DHT22;7953;54.302;10.128;2024-02-23T09:02:18;6.40;99.90
15707;DHT22;7953;54.302;10.128;2024-02-23T09:04:45;6.30;99.90
15707;DHT22;7953;54.302;10.128;2024-02-23T09:07:12;6.40;99.90
15707;DHT22;7953;54.302;10.128;2024-02-23T09:09:39;6.50;99.90
15707;DHT22;7953;54.302;10.128;2024-02-23T09:12:07;6.70;99.90
15707;DHT22;7953;54.302;10.128;2024-02-23T09:14:37;6.80;99.90
15707;DHT22;7953;54.302;10.128;2024-02-23T09:17:04;7.00;99.90
15707;DHT22;7953;54.302;10.128;2024-02-23T09:19:34;7.10;99.90
15707;DHT22;7953;54.302;10.128;2024-02-23T09:22:00;7.00;99.90
15707;DHT22;7953;54.302;10.128;2024-02-23T09:24:27;7.10;99.90
15707;DHT22;7953;54.302;10.128;2024-02-23T09:26:54;7.10;99.90
15707;DHT22;7953;54.302;10.128;2024-02-23T09:29:22;7.60;99.90
15707;DHT22;7953;54.302;10.128;2024-02-23T09:31:50;8.20;99.90
15707;DHT22;7953;54.302;10.128;2024-02-23T09:34:18;8.80;99.90
15707;DHT22;7953;54.302;10.128;2024-02-23T09:36:45;9.00;99.90
15707;DHT22;7953;54.302;10.128;2024-02-23T09:39:11;9.20;99.90
15707;DHT22;7953;54.302;10.128;2024-02-23T09:41:39;9.20;99.90
15707;DHT22;7953;54.302;10.128;2024-02-23T09:44:07;9.10;99.90
15707;DHT22;7953;54.302;10.128;2024-02-23T09:46:36;8.90;99.90
15707;DHT22;7953;54.302;10.128;2024-02-23T09:49:05;8.70;99.90
15707;DHT22;7953;54.302;10.128;2024-02-23T09:51:34;8.40;99.90
15707;DHT22;7953;54.302;10.128;2024-02-23T09:54:02;8.30;99.90
15707;DHT22;7953;54.302;10.128;2024-02-23T09:56:30;8.20;99.90
15707;DHT22;7953;54.302;10.128;2024-02-23T09:59:00;8.20;99.90
15707;DHT22;7953;54.302;10.128;2024-02-23T10:01:29;8.00;99.90
15707;DHT22;7953;54.302;10.128;2024-02-23T10:03:58;8.10;99.90
15707;DHT22;7953;54.302;10.128;2024-02-23T10:06:27;8.00;99.90
15707;DHT22;7953;54.302;10.128;2024-02-23T10:08:54;7.90;99.90
15707;DHT22;7953;54.302;10.128;2024-02-23T10:11:21;7.80;99.90
15707;DHT22;7953;54.302;10.128;2024-02-23T10:13:48;7.70;99.90
15707;DHT22;7953;54.302;10.128;2024-02-23T10:16:16;7.70;99.90
15707;DHT22;7953;54.302;10.128;2024-02-23T10:18:43;7.70;99.90
15707;DHT22;7953;54.302;10.128;2024-02-23T10:21:10;7.70;99.90
15707;DHT22;7953;54.302;10.128;2024-02-23T10:23:38;7.60;99.90
15707;DHT22;7953;54.302;10.128;2024-02-23T10:26:06;7.70;99.90
15707;DHT22;7953;54.302;10.128;2024-02-23T10:28:34;7.70;99.90
15707;DHT22;7953;54.302;10.128;2024-02-23T10:31:01;7.70;99.90
15707;DHT22;7953;54.302;10.128;2024-02-23T10:33:28;7.70;99.90
15707;DHT22;7953;54.302;10.128;2024-02-23T10:35:57;7.70;99.90
15707;DHT22;7953;54.302;10.128;2024-02-23T10:38:24;7.70;99.90
15707;DHT22;7953;54.302;10.128;2024-02-23T10:40:55;7.70;99.90
15707;DHT22;7953;54.302;10.128;2024-02-23T10:43:25;7.70;99.90
15707;DHT22;7953;54.302;10.128;2024-02-23T10:45:57;7.70;99.90
15707;DHT22;7953;54.302;10.128;2024-02-23T10:48:26;7.60;99.90
15707;DHT22;7953;54.302;10.128;2024-02-23T10:50:55;7.50;99.90
15707;DHT22;7953;54.302;10.128;2024-02-23T10:53:23;7.50;99.90
15707;DHT22;7953;54.302;10.128;2024-02-23T10:55:53;7.50;99.90
15707;DHT22;7953;54.302;10.128;2024-02-23T10:58:22;7.50;99.90
15707;DHT22;7953;54.302;10.128;2024-02-23T11:00:49;7.60;99.90
15707;DHT22;7953;54.302;10.128;2024-02-23T11:03:17;7.60;99.90
15707;DHT22;7953;54.302;10.128;2024-02-23T11:05:47;7.60;99.90
15707;DHT22;7953;54.302;10.128;2024-02-23T11:08:17;7.70;99.90
15707;DHT22;7953;54.302;10.128;2024-02-23T11:10:49;7.80;99.90
15707;DHT22;7953;54.302;10.128;2024-02-23T11:13:18;7.80;99.90
15707;DHT22;7953;54.302;10.128;2024-02-23T11:15:45;7.70;99.90
15707;DHT22;7953;54.302;10.128;2024-02-23T11:18:22;7.80;99.90
15707;DHT22;7953;54.302;10.128;2024-02-23T11:20:54;7.90;99.90
15707;DHT22;7953;54.302;10.128;2024-02-23T11:23:21;8.00;99.90
15707;DHT22;7953;54.302;10.128;2024-02-23T11:25:59;8.10;99.90
15707;DHT22;7953;54.302;10.128;2024-02-23T11:28:29;8.20;99.90
15707;DHT22;7953;54.302;10.128;2024-02-23T11:30:57;8.30;99.90
15707;DHT22;7953;54.302;10.128;2024-02-23T11:33:28;8.60;99.90
15707;DHT22;7953;54.302;10.128;2024-02-23T11:36:05;8.70;99.90
15707;DHT22;7953;54.302;10.128;2024-02-23T11:38:32;8.60;99.90
15707;DHT22;7953;54.302;10.128;2024-02-23T11:41:00;8.50;99.90
15707;DHT22;7953;54.302;10.128;2024-02-23T11:43:28;8.30;99.90
15707;DHT22;7953;54.302;10.128;2024-02-23T11:45:55;8.20;99.90
15707;DHT22;7953;54.302;10.128;2024-02-23T11:48:23;8.20;99.90
15707;DHT22;7953;54.302;10.128;2024-02-23T11:50:50;8.30;99.90
15707;DHT22;7953;54.302;10.128;2024-02-23T11:53:17;8.20;99.90
15707;DHT22;7953;54.302;10.128;2024-02-23T11:55:47;8.20;99.90
15707;DHT22;7953;54.302;10.128;2024-02-23T11:58:15;8.30;99.90
15707;DHT22;7953;54.302;10.128;2024-02-23T12:00:43;8.40;99.90
15707;DHT22;7953;54.302;10.128;2024-02-23T12:03:11;8.50;99.90
15707;DHT22;7953;54.302;10.128;2024-02-23T12:05:38;8.50;99.90
15707;DHT22;7953;54.302;10.128;2024-02-23T12:08:05;8.40;99.90
15707;DHT22;7953;54.302;10.128;2024-02-23T12:10:32;8.40;99.90
15707;DHT22;7953;54.302;10.128;2024-02-23T12:12:59;8.40;99.90
15707;DHT22;7953;54.302;10.128;2024-02-23T12:15:26;8.50;99.90
15707;DHT22;7953;54.302;10.128;2024-02-23T12:17:58;8.40;99.90
15707;DHT22;7953;54.302;10.128;2024-02-23T12:20:25;8.50;99.90
15707;DHT22;7953;54.302;10.128;2024-02-23T12:22:55;8.60;99.90
15707;DHT22;7953;54.302;10.128;2024-02-23T12:25:22;8.60;99.90
15707;DHT22;7953;54.302;10.128;2024-02-23T12:27:54;8.70;99.90
15707;DHT22;7953;54.302;10.128;2024-02-23T12:30:21;8.70;99.90
15707;DHT22;7953;54.302;10.128;2024-02-23T12:32:48;8.70;99.90
15707;DHT22;7953;54.302;10.128;2024-02-23T12:35:16;8.80;99.90
15707;DHT22;7953;54.302;10.128;2024-02-23T12:37:43;8.80;99.90
15707;DHT22;7953;54.302;10.128;2024-02-23T12:40:11;8.70;99.90
15707;DHT22;7953;54.302;10.128;2024-02-23T12:42:38;8.60;99.90
15707;DHT22;7953;54.302;10.128;2024-02-23T12:45:05;8.60;99.90
15707;DHT22;7953;54.302;10.128;2024-02-23T12:47:32;8.60;99.90
15707;DHT22;7953;54.302;10.128;2024-02-23T12:49:59;8.60;99.90
15707;DHT22;7953;54.302;10.128;2024-02-23T12:52:27;8.50;99.90
15707;DHT22;7953;54.302;10.128;2024-02-23T12:54:54;8.50;99.90
15707;DHT22;7953;54.302;10.128;2024-02-23T12:57:21;8.50;99.90
15707;DHT22;7953;54.302;10.128;2024-02-23T12:59:47;8.40;99.90
15707;DHT22;7953;54.302;10.128;2024-02-23T13:02:15;8.40;99.90
15707;DHT22;7953;54.302;10.128;2024-02-23T13:04:42;8.40;99.90
15707;DHT22;7953;54.302;10.128;2024-02-23T13:07:14;8.40;99.90
15707;DHT22;7953;54.302;10.128;2024-02-23T13:09:42;8.30;99.90
15707;DHT22;7953;54.302;10.128;2024-02-23T13:12:09;8.20;99.90
15707;DHT22;7953;54.302;10.128;2024-02-23T13:14:36;8.30;99.90
15707;DHT22;7953;54.302;10.128;2024-02-23T13:17:03;8.40;99.90
15707;DHT22;7953;54.302;10.128;2024-02-23T13:19:30;8.40;99.90
15707;DHT22;7953;54.302;10.128;2024-02-23T13:21:57;8.40;99.90
15707;DHT22;7953;54.302;10.128;2024-02-23T13:24:25;8.50;99.90
15707;DHT22;7953;54.302;10.128;2024-02-23T13:26:54;8.50;99.90
15707;DHT22;7953;54.302;10.128;2024-02-23T13:29:20;8.50;99.90
15707;DHT22;7953;54.302;10.128;2024-02-23T13:31:47;8.50;99.90
15707;DHT22;7953;54.302;10.128;2024-02-23T13:34:14;8.50;99.90
15707;DHT22;7953;54.302;10.128;2024-02-23T13:36:42;8.50;99.90
15707;DHT22;7953;54.302;10.128;2024-02-23T13:39:09;8.40;99.90
15707;DHT22;7953;54.302;10.128;2024-02-23T13:41:36;8.40;99.90
15707;DHT22;7953;54.302;10.128;2024-02-23T13:44:05;8.50;99.90
15707;DHT22;7953;54.302;10.128;2024-02-23T13:46:31;8.50;99.90
15707;DHT22;7953;54.302;10.128;2024-02-23T13:49:03;8.50;99.90
15707;DHT22;7953;54.302;10.128;2024-02-23T13:51:31;8.60;99.90
15707;DHT22;7953;54.302;10.128;2024-02-23T13:53:58;8.60;99.90
15707;DHT22;7953;54.302;10.128;2024-02-23T13:56:25;8.60;99.90
15707;DHT22;7953;54.302;10.128;2024-02-23T13:58:52;8.60;99.90
15707;DHT22;7953;54.302;10.128;2024-02-23T14:01:20;8.60;99.90
15707;DHT22;7953;54.302;10.128;2024-02-23T14:03:47;8.60;99.90
15707;DHT22;7953;54.302;10.128;2024-02-23T14:06:13;8.60;99.90
15707;DHT22;7953;54.302;10.128;2024-02-23T14:08:40;8.50;99.90
15707;DHT22;7953;54.302;10.128;2024-02-23T14:11:08;8.50;99.90
15707;DHT22;7953;54.302;10.128;2024-02-23T14:13:35;8.40;99.90
15707;DHT22;7953;54.302;10.128;2024-02-23T14:16:02;8.40;99.90
15707;DHT22;7953;54.302;10.128;2024-02-23T14:18:31;8.30;99.90
15707;DHT22;7953;54.302;10.128;2024-02-23T14:21:03;8.30;99.90
15707;DHT22;7953;54.302;10.128;2024-02-23T14:23:29;8.30;99.90
15707;DHT22;7953;54.302;10.128;2024-02-23T14:25:56;8.20;99.90
15707;DHT22;7953;54.302;10.128;2024-02-23T14:28:23;8.20;99.90
15707;DHT22;7953;54.302;10.128;2024-02-23T14:30:49;8.30;99.90
15707;DHT22;7953;54.302;10.128;2024-02-23T14:33:16;8.30;99.90
15707;DHT22;7953;54.302;10.128;2024-02-23T14:35:44;8.30;99.90
15707;DHT22;7953;54.302;10.128;2024-02-23T14:38:11;8.30;99.90
15707;DHT22;7953;54.302;10.128;2024-02-23T14:40:38;8.30;99.90
15707;DHT22;7953;54.302;10.128;2024-02-23T14:43:05;8.30;99.90
15707;DHT22;7953;54.302;10.128;2024-02-23T14:45:32;8.30;99.90
15707;DHT22;7953;54.302;10.128;2024-02-23T14:47:59;8.30;99.90
15707;DHT22;7953;54.302;10.128;2024-02-23T14:50:26;8.40;99.90
15707;DHT22;7953;54.302;10.128;2024-02-23T14:52:54;8.40;99.90
15707;DHT22;7953;54.302;10.128;2024-02-23T14:55:22;8.40;99.90
15707;DHT22;7953;54.302;10.128;2024-02-23T14:57:48;8.40;99.90
15707;DHT22;7953;54.302;10.128;2024-02-23T15:00:16;8.40;99.90
15707;DHT22;7953;54.302;10.128;2024-02-23T15:02:43;8.30;99.90
15707;DHT22;7953;54.302;10.128;2024-02-23T15:05:10;8.20;99.90
15707;DHT22;7953;54.302;10.128;2024-02-23T15:07:37;8.20;99.90
15707;DHT22;7953;54.302;10.128;2024-02-23T15:10:06;8.20;99.90
15707;DHT22;7953;54.302;10.128;2024-02-23T15:12:34;8.20;99.90
15707;DHT22;7953;54.302;10.128;2024-02-23T15:15:01;8.20;99.90
15707;DHT22;7953;54.302;10.128;2024-02-23T15:17:29;8.20;99.90
15707;DHT22;7953;54.302;10.128;2024-02-23T15:19:56;8.20;99.90
15707;DHT22;7953;54.302;10.128;2024-02-23T15:22:23;8.20;99.90
15707;DHT22;7953;54.302;10.128;2024-02-23T15:24:51;8.20;99.90
15707;DHT22;7953;54.302;10.128;2024-02-23T15:27:19;8.30;99.90
15707;DHT22;7953;54.302;10.128;2024-02-23T15:29:46;8.30;99.90
15707;DHT22;7953;54.302;10.128;2024-02-23T15:32:14;8.20;99.90
15707;DHT22;7953;54.302;10.128;2024-02-23T15:34:41;8.20;99.90
15707;DHT22;7953;54.302;10.128;2024-02-23T15:37:08;8.20;99.90
15707;DHT22;7953;54.302;10.128;2024-02-23T15:39:34;8.20;99.90
15707;DHT22;7953;54.302;10.128;2024-02-23T15:42:01;8.20;99.90
15707;DHT22;7953;54.302;10.128;2024-02-23T15:44:30;8.20;99.90
15707;DHT22;7953;54.302;10.128;2024-02-23T15:46:57;8.20;99.90